sensor_id;sensor_type;location;lat;lon;timestamp;P1;durP1;ratioP1;P2;durP2;ratioP2
51692;SDS011;37777;53.066;21.638;2022-08-06T00:06:44;11.85;;;9.38;;
51692;SDS011;37777;53.066;21.638;2022-08-06T00:13:47;17.20;;;9.27;;
51692;SDS011;37777;53.066;21.638;2022-08-06T00:20:49;13.40;;;9.00;;
51692;SDS011;37777;53.066;21.638;2022-08-06T00:27:51;12.65;;;9.18;;
51692;SDS011;37777;53.066;21.638;2022-08-06T00:34:53;12.25;;;8.45;;
51692;SDS011;37777;53.066;21.638;2022-08-06T00:41:57;17.05;;;9.40;;
51692;SDS011;37777;53.066;21.638;2022-08-06T00:48:59;14.98;;;9.18;;
51692;SDS011;37777;53.066;21.638;2022-08-06T00:56:11;12.23;;;9.27;;
51692;SDS011;37777;53.066;21.638;2022-08-06T01:03:13;14.10;;;10.10;;
51692;SDS011;37777;53.066;21.638;2022-08-06T01:10:28;14.32;;;10.30;;
51692;SDS011;37777;53.066;21.638;2022-08-06T01:25:09;15.98;;;9.98;;
51692;SDS011;37777;53.066;21.638;2022-08-06T01:32:23;12.65;;;10.00;;
51692;SDS011;37777;53.066;21.638;2022-08-06T01:39:29;15.68;;;10.27;;
51692;SDS011;37777;53.066;21.638;2022-08-06T01:46:54;14.15;;;11.68;;
51692;SDS011;37777;53.066;21.638;2022-08-06T01:53:59;19.98;;;10.65;;
51692;SDS011;37777;53.066;21.638;2022-08-06T02:01:08;14.73;;;11.07;;
51692;SDS011;37777;53.066;21.638;2022-08-06T02:08:13;15.45;;;11.18;;
51692;SDS011;37777;53.066;21.638;2022-08-06T02:15:36;13.18;;;11.48;;
51692;SDS011;37777;53.066;21.638;2022-08-06T02:22:59;15.25;;;11.00;;
51692;SDS011;37777;53.066;21.638;2022-08-06T02:30:03;13.93;;;10.77;;
51692;SDS011;37777;53.066;21.638;2022-08-06T02:37:12;15.98;;;11.65;;
51692;SDS011;37777;53.066;21.638;2022-08-06T02:44:48;14.57;;;11.20;;
51692;SDS011;37777;53.066;21.638;2022-08-06T02:51:58;19.65;;;13.27;;
51692;SDS011;37777;53.066;21.638;2022-08-06T02:59:23;16.25;;;12.48;;
51692;SDS011;37777;53.066;21.638;2022-08-06T03:06:40;20.13;;;12.82;;
51692;SDS011;37777;53.066;21.638;2022-08-06T03:13:44;20.65;;;13.45;;
51692;SDS011;37777;53.066;21.638;2022-08-06T03:20:50;15.88;;;12.75;;
51692;SDS011;37777;53.066;21.638;2022-08-06T03:27:52;17.90;;;12.23;;
51692;SDS011;37777;53.066;21.638;2022-08-06T03:35:03;19.85;;;12.63;;
51692;SDS011;37777;53.066;21.638;2022-08-06T03:42:05;20.60;;;12.63;;
51692;SDS011;37777;53.066;21.638;2022-08-06T03:49:10;19.10;;;12.15;;
51692;SDS011;37777;53.066;21.638;2022-08-06T03:56:27;19.05;;;13.45;;
51692;SDS011;37777;53.066;21.638;2022-08-06T04:03:31;20.33;;;13.50;;
51692;SDS011;37777;53.066;21.638;2022-08-06T04:10:41;25.50;;;14.80;;
51692;SDS011;37777;53.066;21.638;2022-08-06T04:17:57;22.55;;;15.30;;
51692;SDS011;37777;53.066;21.638;2022-08-06T04:25:00;23.50;;;15.32;;
51692;SDS011;37777;53.066;21.638;2022-08-06T04:32:02;19.02;;;14.73;;
51692;SDS011;37777;53.066;21.638;2022-08-06T04:39:25;26.65;;;14.63;;
51692;SDS011;37777;53.066;21.638;2022-08-06T04:46:48;25.63;;;16.58;;
51692;SDS011;37777;53.066;21.638;2022-08-06T04:53:50;20.38;;;15.05;;
51692;SDS011;37777;53.066;21.638;2022-08-06T05:00:58;18.63;;;15.20;;
51692;SDS011;37777;53.066;21.638;2022-08-06T05:08:11;26.55;;;19.33;;
51692;SDS011;37777;53.066;21.638;2022-08-06T05:15:15;27.45;;;17.23;;
51692;SDS011;37777;53.066;21.638;2022-08-06T05:22:22;30.73;;;16.00;;
51692;SDS011;37777;53.066;21.638;2022-08-06T05:29:44;19.55;;;12.82;;
51692;SDS011;37777;53.066;21.638;2022-08-06T05:36:55;16.77;;;10.15;;
51692;SDS011;37777;53.066;21.638;2022-08-06T05:43:57;12.73;;;8.38;;
51692;SDS011;37777;53.066;21.638;2022-08-06T05:51:06;12.68;;;7.88;;
51692;SDS011;37777;53.066;21.638;2022-08-06T05:58:14;13.10;;;8.88;;
51692;SDS011;37777;53.066;21.638;2022-08-06T06:05:27;15.07;;;9.70;;
51692;SDS011;37777;53.066;21.638;2022-08-06T06:12:50;13.35;;;8.40;;
51692;SDS011;37777;53.066;21.638;2022-08-06T06:20:13;18.88;;;9.40;;
51692;SDS011;37777;53.066;21.638;2022-08-06T06:27:59;22.38;;;12.77;;
51692;SDS011;37777;53.066;21.638;2022-08-06T06:35:50;26.50;;;14.80;;
51692;SDS011;37777;53.066;21.638;2022-08-06T06:42:42;31.70;;;16.92;;
51692;SDS011;37777;53.066;21.638;2022-08-06T06:50:49;29.88;;;18.13;;
51692;SDS011;37777;53.066;21.638;2022-08-06T06:57:29;13.57;;;9.90;;
51692;SDS011;37777;53.066;21.638;2022-08-06T07:04:46;19.97;;;11.27;;
51692;SDS011;37777;53.066;21.638;2022-08-06T07:11:50;20.75;;;11.48;;
51692;SDS011;37777;53.066;21.638;2022-08-06T07:19:04;13.73;;;8.00;;
51692;SDS011;37777;53.066;21.638;2022-08-06T07:26:12;9.75;;;6.05;;
51692;SDS011;37777;53.066;21.638;2022-08-06T07:33:15;9.20;;;6.13;;
51692;SDS011;37777;53.066;21.638;2022-08-06T07:40:41;9.55;;;6.30;;
51692;SDS011;37777;53.066;21.638;2022-08-06T07:47:52;8.73;;;5.72;;
51692;SDS011;37777;53.066;21.638;2022-08-06T07:54:59;12.02;;;6.57;;
51692;SDS011;37777;53.066;21.638;2022-08-06T08:02:03;13.38;;;6.85;;
51692;SDS011;37777;53.066;21.638;2022-08-06T08:09:07;9.65;;;6.65;;
51692;SDS011;37777;53.066;21.638;2022-08-06T08:16:12;7.65;;;4.95;;
51692;SDS011;37777;53.066;21.638;2022-08-06T08:23:20;8.25;;;4.82;;
51692;SDS011;37777;53.066;21.638;2022-08-06T08:30:36;12.73;;;6.18;;
51692;SDS011;37777;53.066;21.638;2022-08-06T08:37:41;5.72;;;3.40;;
51692;SDS011;37777;53.066;21.638;2022-08-06T08:44:43;6.85;;;3.20;;
51692;SDS011;37777;53.066;21.638;2022-08-06T08:51:46;7.78;;;3.70;;
51692;SDS011;37777;53.066;21.638;2022-08-06T08:58:50;8.73;;;3.40;;
51692;SDS011;37777;53.066;21.638;2022-08-06T09:06:13;14.13;;;4.00;;
51692;SDS011;37777;53.066;21.638;2022-08-06T09:13:31;12.77;;;5.38;;
51692;SDS011;37777;53.066;21.638;2022-08-06T09:20:52;16.98;;;6.65;;
51692;SDS011;37777;53.066;21.638;2022-08-06T09:27:54;14.43;;;7.35;;
51692;SDS011;37777;53.066;21.638;2022-08-06T09:35:00;15.20;;;6.95;;
51692;SDS011;37777;53.066;21.638;2022-08-06T09:42:34;9.18;;;4.20;;
51692;SDS011;37777;53.066;21.638;2022-08-06T09:49:45;16.60;;;9.18;;
51692;SDS011;37777;53.066;21.638;2022-08-06T09:57:01;15.10;;;6.90;;
51692;SDS011;37777;53.066;21.638;2022-08-06T10:04:03;14.30;;;5.38;;
51692;SDS011;37777;53.066;21.638;2022-08-06T10:11:15;9.73;;;3.88;;
51692;SDS011;37777;53.066;21.638;2022-08-06T10:18:49;12.45;;;5.22;;
51692;SDS011;37777;53.066;21.638;2022-08-06T10:26:00;11.95;;;5.97;;
51692;SDS011;37777;53.066;21.638;2022-08-06T10:33:05;6.18;;;4.00;;
51692;SDS011;37777;53.066;21.638;2022-08-06T10:40:23;4.97;;;2.63;;
51692;SDS011;37777;53.066;21.638;2022-08-06T10:47:32;4.17;;;2.20;;
51692;SDS011;37777;53.066;21.638;2022-08-06T10:54:54;6.88;;;2.00;;
51692;SDS011;37777;53.066;21.638;2022-08-06T11:09:26;3.65;;;2.00;;
51692;SDS011;37777;53.066;21.638;2022-08-06T11:17:08;4.97;;;2.10;;
51692;SDS011;37777;53.066;21.638;2022-08-06T11:24:51;7.32;;;2.25;;
51692;SDS011;37777;53.066;21.638;2022-08-06T11:33:19;9.05;;;2.15;;
51692;SDS011;37777;53.066;21.638;2022-08-06T11:40:43;6.60;;;2.30;;
51692;SDS011;37777;53.066;21.638;2022-08-06T11:48:35;2.55;;;1.77;;
51692;SDS011;37777;53.066;21.638;2022-08-06T11:56:12;7.25;;;2.20;;
51692;SDS011;37777;53.066;21.638;2022-08-06T12:03:39;5.93;;;2.42;;
51692;SDS011;37777;53.066;21.638;2022-08-06T12:18:28;11.15;;;4.00;;
51692;SDS011;37777;53.066;21.638;2022-08-06T12:25:37;8.95;;;2.90;;
51692;SDS011;37777;53.066;21.638;2022-08-06T12:32:41;11.30;;;4.03;;
51692;SDS011;37777;53.066;21.638;2022-08-06T12:39:59;6.18;;;3.60;;
51692;SDS011;37777;53.066;21.638;2022-08-06T12:47:21;6.53;;;3.42;;
51692;SDS011;37777;53.066;21.638;2022-08-06T12:54:49;9.60;;;5.60;;
51692;SDS011;37777;53.066;21.638;2022-08-06T13:01:53;7.82;;;4.10;;
51692;SDS011;37777;53.066;21.638;2022-08-06T13:09:15;13.30;;;3.50;;
51692;SDS011;37777;53.066;21.638;2022-08-06T13:16:21;7.47;;;3.70;;
51692;SDS011;37777;53.066;21.638;2022-08-06T13:30:34;8.73;;;3.53;;
51692;SDS011;37777;53.066;21.638;2022-08-06T13:45:20;12.75;;;3.63;;
51692;SDS011;37777;53.066;21.638;2022-08-06T13:52:47;7.72;;;2.97;;
51692;SDS011;37777;53.066;21.638;2022-08-06T14:00:04;6.90;;;3.40;;
51692;SDS011;37777;53.066;21.638;2022-08-06T14:07:10;5.88;;;2.58;;
51692;SDS011;37777;53.066;21.638;2022-08-06T14:14:15;8.35;;;3.95;;
51692;SDS011;37777;53.066;21.638;2022-08-06T14:21:25;7.63;;;4.20;;
51692;SDS011;37777;53.066;21.638;2022-08-06T14:28:29;9.45;;;3.58;;
51692;SDS011;37777;53.066;21.638;2022-08-06T14:35:31;9.30;;;2.75;;
51692;SDS011;37777;53.066;21.638;2022-08-06T14:42:40;6.40;;;2.67;;
51692;SDS011;37777;53.066;21.638;2022-08-06T14:50:02;7.65;;;3.33;;
51692;SDS011;37777;53.066;21.638;2022-08-06T14:57:06;9.32;;;3.75;;
51692;SDS011;37777;53.066;21.638;2022-08-06T15:04:18;7.30;;;3.10;;
51692;SDS011;37777;53.066;21.638;2022-08-06T15:11:35;4.47;;;2.60;;
51692;SDS011;37777;53.066;21.638;2022-08-06T15:19:04;4.72;;;2.10;;
51692;SDS011;37777;53.066;21.638;2022-08-06T15:26:29;3.25;;;1.80;;
51692;SDS011;37777;53.066;21.638;2022-08-06T15:33:49;4.28;;;1.58;;
51692;SDS011;37777;53.066;21.638;2022-08-06T15:40:52;2.95;;;1.52;;
51692;SDS011;37777;53.066;21.638;2022-08-06T15:47:58;3.30;;;1.70;;
51692;SDS011;37777;53.066;21.638;2022-08-06T15:55:24;3.33;;;1.90;;
51692;SDS011;37777;53.066;21.638;2022-08-06T16:02:32;3.42;;;1.67;;
51692;SDS011;37777;53.066;21.638;2022-08-06T16:09:41;4.85;;;2.20;;
51692;SDS011;37777;53.066;21.638;2022-08-06T16:17:08;6.60;;;3.40;;
51692;SDS011;37777;53.066;21.638;2022-08-06T16:24:10;5.18;;;1.60;;
51692;SDS011;37777;53.066;21.638;2022-08-06T16:31:12;1.60;;;1.50;;
51692;SDS011;37777;53.066;21.638;2022-08-06T16:38:16;4.22;;;1.63;;
51692;SDS011;37777;53.066;21.638;2022-08-06T16:45:18;3.90;;;1.65;;
51692;SDS011;37777;53.066;21.638;2022-08-06T16:52:24;13.02;;;1.92;;
51692;SDS011;37777;53.066;21.638;2022-08-06T16:59:45;5.43;;;1.63;;
51692;SDS011;37777;53.066;21.638;2022-08-06T17:06:59;2.78;;;2.03;;
51692;SDS011;37777;53.066;21.638;2022-08-06T17:14:02;5.10;;;1.63;;
51692;SDS011;37777;53.066;21.638;2022-08-06T17:21:14;14.25;;;1.60;;
51692;SDS011;37777;53.066;21.638;2022-08-06T17:28:15;3.15;;;1.80;;
51692;SDS011;37777;53.066;21.638;2022-08-06T17:35:19;5.32;;;1.70;;
51692;SDS011;37777;53.066;21.638;2022-08-06T17:42:22;5.70;;;2.00;;
51692;SDS011;37777;53.066;21.638;2022-08-06T17:49:26;5.35;;;1.92;;
51692;SDS011;37777;53.066;21.638;2022-08-06T17:56:36;7.18;;;2.15;;
51692;SDS011;37777;53.066;21.638;2022-08-06T18:03:45;4.03;;;1.90;;
51692;SDS011;37777;53.066;21.638;2022-08-06T18:10:50;2.97;;;1.80;;
51692;SDS011;37777;53.066;21.638;2022-08-06T18:17:53;2.80;;;2.00;;
51692;SDS011;37777;53.066;21.638;2022-08-06T18:25:05;5.63;;;2.08;;
51692;SDS011;37777;53.066;21.638;2022-08-06T18:32:15;4.95;;;2.05;;
51692;SDS011;37777;53.066;21.638;2022-08-06T18:39:29;2.60;;;1.70;;
51692;SDS011;37777;53.066;21.638;2022-08-06T18:46:50;5.18;;;1.90;;
51692;SDS011;37777;53.066;21.638;2022-08-06T18:54:01;5.47;;;2.00;;
51692;SDS011;37777;53.066;21.638;2022-08-06T19:01:06;4.28;;;2.20;;
51692;SDS011;37777;53.066;21.638;2022-08-06T19:08:36;5.75;;;2.00;;
51692;SDS011;37777;53.066;21.638;2022-08-06T19:15:40;3.17;;;2.17;;
51692;SDS011;37777;53.066;21.638;2022-08-06T19:22:52;6.90;;;2.10;;
51692;SDS011;37777;53.066;21.638;2022-08-06T19:30:10;4.93;;;1.88;;
51692;SDS011;37777;53.066;21.638;2022-08-06T19:37:33;6.32;;;1.95;;
51692;SDS011;37777;53.066;21.638;2022-08-06T19:44:57;5.25;;;1.90;;
51692;SDS011;37777;53.066;21.638;2022-08-06T19:52:17;6.30;;;2.10;;
51692;SDS011;37777;53.066;21.638;2022-08-06T19:59:23;7.68;;;2.38;;
51692;SDS011;37777;53.066;21.638;2022-08-06T20:06:47;5.72;;;2.40;;
51692;SDS011;37777;53.066;21.638;2022-08-06T20:14:09;3.63;;;2.05;;
51692;SDS011;37777;53.066;21.638;2022-08-06T20:21:13;5.43;;;2.47;;
51692;SDS011;37777;53.066;21.638;2022-08-06T20:28:36;3.38;;;2.42;;
51692;SDS011;37777;53.066;21.638;2022-08-06T20:35:59;9.73;;;2.38;;
51692;SDS011;37777;53.066;21.638;2022-08-06T20:43:08;5.10;;;2.20;;
51692;SDS011;37777;53.066;21.638;2022-08-06T20:50:35;4.78;;;2.30;;
51692;SDS011;37777;53.066;21.638;2022-08-06T20:57:47;9.75;;;2.20;;
51692;SDS011;37777;53.066;21.638;2022-08-06T21:04:49;9.60;;;2.45;;
51692;SDS011;37777;53.066;21.638;2022-08-06T21:12:11;5.97;;;2.15;;
51692;SDS011;37777;53.066;21.638;2022-08-06T21:19:15;3.88;;;2.10;;
51692;SDS011;37777;53.066;21.638;2022-08-06T21:26:19;8.45;;;2.30;;
51692;SDS011;37777;53.066;21.638;2022-08-06T21:33:25;4.80;;;2.53;;
51692;SDS011;37777;53.066;21.638;2022-08-06T21:40:27;10.73;;;2.67;;
51692;SDS011;37777;53.066;21.638;2022-08-06T21:47:34;8.35;;;2.65;;
51692;SDS011;37777;53.066;21.638;2022-08-06T21:54:47;5.00;;;2.40;;
51692;SDS011;37777;53.066;21.638;2022-08-06T22:01:52;7.63;;;3.13;;
51692;SDS011;37777;53.066;21.638;2022-08-06T22:09:13;7.03;;;2.80;;
51692;SDS011;37777;53.066;21.638;2022-08-06T22:16:20;4.32;;;2.47;;
51692;SDS011;37777;53.066;21.638;2022-08-06T22:23:34;5.47;;;2.60;;
51692;SDS011;37777;53.066;21.638;2022-08-06T22:30:36;4.35;;;2.60;;
51692;SDS011;37777;53.066;21.638;2022-08-06T22:37:42;6.10;;;2.88;;
51692;SDS011;37777;53.066;21.638;2022-08-06T22:45:05;13.98;;;2.90;;
51692;SDS011;37777;53.066;21.638;2022-08-06T22:52:28;7.20;;;2.40;;
51692;SDS011;37777;53.066;21.638;2022-08-06T22:59:50;7.72;;;2.50;;
51692;SDS011;37777;53.066;21.638;2022-08-06T23:07:12;8.13;;;2.80;;
51692;SDS011;37777;53.066;21.638;2022-08-06T23:14:21;7.65;;;4.43;;
51692;SDS011;37777;53.066;21.638;2022-08-06T23:21:33;7.53;;;3.67;;
51692;SDS011;37777;53.066;21.638;2022-08-06T23:28:56;11.25;;;3.30;;
51692;SDS011;37777;53.066;21.638;2022-08-06T23:35:58;6.55;;;3.13;;
51692;SDS011;37777;53.066;21.638;2022-08-06T23:43:00;10.98;;;3.20;;
51692;SDS011;37777;53.066;21.638;2022-08-06T23:50:02;4.07;;;3.20;;
51692;SDS011;37777;53.066;21.638;2022-08-06T23:57:04;7.65;;;3.60;;
